createdAt,value
2016-05-21T00:00:12.545Z,0
2016-05-21T00:01:12.516Z,0
2016-05-21T00:02:12.519Z,0
2016-05-21T00:03:12.553Z,0
2016-05-21T00:04:12.555Z,0
2016-05-21T00:05:12.417Z,0
2016-05-21T00:06:12.607Z,0
2016-05-21T00:07:12.642Z,0
2016-05-21T00:08:12.644Z,0
2016-05-21T00:09:12.663Z,0
2016-05-21T00:10:12.680Z,0
2016-05-21T00:11:13.086Z,0
2016-05-21T00:12:12.792Z,0
2016-05-21T00:13:12.842Z,0
2016-05-21T00:14:12.813Z,0
2016-05-21T00:15:12.707Z,0
2016-05-21T00:16:12.718Z,0
2016-05-21T00:17:12.898Z,0
2016-05-21T00:18:12.985Z,0
2016-05-21T00:19:12.946Z,0
2016-05-21T00:20:12.985Z,0
2016-05-21T00:21:13.007Z,0
2016-05-21T00:22:13.028Z,0
2016-05-21T00:23:12.876Z,0
2016-05-21T00:24:12.960Z,0
2016-05-21T00:25:13.089Z,0
2016-05-21T00:26:13.109Z,0
2016-05-21T00:27:13.144Z,0
2016-05-21T00:28:13.147Z,0
2016-05-21T00:29:13.166Z,0
2016-05-21T00:30:13.169Z,0
2016-05-21T00:31:13.048Z,0
2016-05-21T00:32:13.223Z,0
2016-05-21T00:33:13.240Z,0
2016-05-21T00:34:13.243Z,0
2016-05-21T00:35:13.121Z,0
2016-05-21T00:36:13.155Z,0
2016-05-21T00:37:13.283Z,0
2016-05-21T00:38:13.317Z,0
2016-05-21T00:39:13.350Z,0
2016-05-21T00:40:13.228Z,0
2016-05-21T00:41:13.981Z,0
2016-05-21T00:42:13.436Z,0
2016-05-21T00:43:13.424Z,0
2016-05-21T00:44:13.488Z,0
2016-05-21T00:45:13.461Z,0
2016-05-21T00:46:13.495Z,0
2016-05-21T00:47:13.497Z,0
2016-05-21T00:48:13.375Z,0
2016-05-21T00:49:13.393Z,0
2016-05-21T00:50:13.411Z,0
2016-05-21T00:51:13.586Z,0
2016-05-21T00:52:13.432Z,0
2016-05-21T00:53:13.591Z,0
2016-05-21T00:54:13.624Z,0
2016-05-21T00:55:13.659Z,0
2016-05-21T00:56:13.365Z,0
2016-05-21T00:57:13.679Z,0
2016-05-21T00:58:13.714Z,0
2016-05-21T00:59:13.560Z,0
2016-05-21T01:00:13.751Z,0
2016-05-21T01:01:13.754Z,0
2016-05-21T01:02:13.771Z,0
2016-05-21T01:03:13.837Z,0
2016-05-21T01:04:13.684Z,0
2016-05-21T01:05:13.686Z,0
2016-05-21T01:06:13.861Z,0
2016-05-21T01:07:13.879Z,0
2016-05-21T01:08:13.569Z,0
2016-05-21T01:09:13.915Z,0
2016-05-21T01:10:13.761Z,0
2016-05-21T01:11:14.108Z,0
2016-05-21T01:12:13.970Z,0
2016-05-21T01:13:13.988Z,0
2016-05-21T01:14:13.992Z,0
2016-05-21T01:15:13.869Z,0
2016-05-21T01:16:13.731Z,0
2016-05-21T01:17:14.062Z,0
2016-05-21T01:18:14.064Z,0
2016-05-21T01:19:14.099Z,0
2016-05-21T01:20:13.961Z,0
2016-05-21T01:21:14.135Z,0
2016-05-21T01:22:13.857Z,0
2016-05-21T01:23:14.032Z,0
2016-05-21T01:24:14.049Z,0
2016-05-21T01:25:14.083Z,0
2016-05-21T01:26:14.257Z,0
2016-05-21T01:27:14.073Z,0
2016-05-21T01:28:14.248Z,0
2016-05-21T01:29:14.282Z,0
2016-05-21T01:30:14.176Z,0
2016-05-21T01:31:14.318Z,0
2016-05-21T01:32:14.181Z,0
2016-05-21T01:33:14.355Z,0
2016-05-21T01:34:14.373Z,0
2016-05-21T01:35:14.376Z,0
2016-05-21T01:36:14.254Z,0
2016-05-21T01:37:14.428Z,0
2016-05-21T01:38:14.275Z,0
2016-05-21T01:39:14.293Z,0
2016-05-21T01:40:14.327Z,0
2016-05-21T01:41:14.783Z,0
2016-05-21T01:42:14.504Z,0
2016-05-21T01:43:14.211Z,0
2016-05-21T01:44:14.385Z,0
2016-05-21T01:45:14.575Z,0
2016-05-21T01:46:14.594Z,0
2016-05-21T01:47:14.596Z,0
2016-05-21T01:48:14.614Z,0
2016-05-21T01:49:14.352Z,0
2016-05-21T01:50:14.650Z,0
2016-05-21T01:51:14.685Z,0
2016-05-21T01:52:14.687Z,0
2016-05-21T01:53:14.705Z,0
2016-05-21T01:54:14.755Z,0
2016-05-21T01:55:14.743Z,0
2016-05-21T01:56:14.683Z,0
2016-05-21T01:57:14.794Z,0
2016-05-21T01:58:14.672Z,0
2016-05-21T01:59:14.660Z,0
2016-05-21T02:00:14.834Z,0
2016-05-21T02:01:14.852Z,0
2016-05-21T02:02:14.886Z,0
2016-05-21T02:03:14.904Z,0
2016-05-21T02:04:14.923Z,0
2016-05-21T02:05:14.753Z,0
2016-05-21T02:06:14.959Z,0
2016-05-21T02:07:14.993Z,0
2016-05-21T02:08:14.995Z,0
2016-05-21T02:09:14.842Z,0
2016-05-21T02:10:15.048Z,0
2016-05-21T02:11:15.489Z,0
2016-05-21T02:12:14.898Z,0
2016-05-21T02:13:15.103Z,0
2016-05-21T02:14:15.106Z,0
2016-05-21T02:15:14.953Z,0
2016-05-21T02:16:14.970Z,0
2016-05-21T02:17:15.161Z,0
2016-05-21T02:18:15.022Z,0
2016-05-21T02:19:15.197Z,0
2016-05-21T02:20:15.200Z,0
2016-05-21T02:21:15.250Z,0
2016-05-21T02:22:15.080Z,0
2016-05-21T02:23:15.271Z,0
2016-05-21T02:24:15.289Z,0
2016-05-21T02:25:15.308Z,0
2016-05-21T02:26:15.310Z,0
2016-05-21T02:27:15.343Z,0
2016-05-21T02:28:15.347Z,0
2016-05-21T02:29:15.193Z,0
2016-05-21T02:30:15.399Z,0
2016-05-21T02:31:15.418Z,0
2016-05-21T02:32:15.092Z,0
2016-05-21T02:33:15.454Z,0
2016-05-21T02:34:15.472Z,0
2016-05-21T02:35:15.491Z,0
2016-05-21T02:36:15.336Z,0
2016-05-21T02:37:15.543Z,0
2016-05-21T02:38:15.374Z,0
2016-05-21T02:39:15.564Z,0
2016-05-21T02:40:15.582Z,0
2016-05-21T02:41:15.616Z,0
2016-05-21T02:42:15.587Z,0
2016-05-21T02:43:15.606Z,0
2016-05-21T02:44:15.655Z,4
2016-05-21T02:45:15.345Z,4
2016-05-21T02:46:15.675Z,4
2016-05-21T02:47:15.538Z,0
2016-05-21T02:48:15.728Z,0
2016-05-21T02:49:15.575Z,4
2016-05-21T02:50:15.766Z,4
2016-05-21T02:51:15.689Z,4
2016-05-21T02:52:15.802Z,4
2016-05-21T02:53:15.789Z,8
2016-05-21T02:54:15.838Z,4
2016-05-21T02:55:16.013Z,8
2016-05-21T02:56:15.703Z,4
2016-05-21T02:57:15.877Z,8
2016-05-21T02:58:15.896Z,8
2016-05-21T02:59:15.915Z,8
2016-05-21T03:00:15.793Z,8
2016-05-21T03:01:15.951Z,12
2016-05-21T03:02:15.812Z,12
2016-05-21T03:03:15.988Z,16
2016-05-21T03:04:16.006Z,16
2016-05-21T03:05:16.024Z,24
2016-05-21T03:06:16.026Z,24
2016-05-21T03:07:16.061Z,28
2016-05-21T03:08:16.079Z,36
2016-05-21T03:09:15.910Z,40
2016-05-21T03:10:15.944Z,48
2016-05-21T03:11:16.087Z,52
2016-05-21T03:12:16.121Z,56
2016-05-21T03:13:16.170Z,64
2016-05-21T03:14:16.189Z,72
2016-05-21T03:15:16.223Z,76
2016-05-21T03:16:16.225Z,80
2016-05-21T03:17:16.244Z,84
2016-05-21T03:18:16.247Z,84
2016-05-21T03:19:16.124Z,88
2016-05-21T03:20:16.300Z,92
2016-05-21T03:21:16.302Z,100
2016-05-21T03:22:16.336Z,104
2016-05-21T03:23:16.370Z,112
2016-05-21T03:24:16.372Z,124
2016-05-21T03:25:16.375Z,132
2016-05-21T03:26:16.393Z,140
2016-05-21T03:27:16.428Z,152
2016-05-21T03:28:16.102Z,164
2016-05-21T03:29:16.291Z,180
2016-05-21T03:30:16.466Z,192
2016-05-21T03:31:16.485Z,208
2016-05-21T03:32:16.487Z,224
2016-05-21T03:33:16.521Z,240
2016-05-21T03:34:16.540Z,256
2016-05-21T03:35:16.387Z,276
2016-05-21T03:36:16.404Z,296
2016-05-21T03:37:16.423Z,312
2016-05-21T03:38:16.613Z,336
2016-05-21T03:39:16.475Z,356
2016-05-21T03:40:16.650Z,376
2016-05-21T03:41:16.465Z,396
2016-05-21T03:42:16.670Z,420
2016-05-21T03:43:16.704Z,444
2016-05-21T03:44:16.707Z,472
2016-05-21T03:45:16.756Z,496
2016-05-21T03:46:16.572Z,524
2016-05-21T03:47:16.762Z,552
2016-05-21T03:48:16.797Z,584
2016-05-21T03:49:16.783Z,612
2016-05-21T03:50:16.817Z,644
2016-05-21T03:51:16.836Z,676
2016-05-21T03:52:16.838Z,708
2016-05-21T03:53:16.716Z,744
2016-05-21T03:54:16.891Z,780
2016-05-21T03:55:16.924Z,816
2016-05-21T03:56:17.411Z,860
2016-05-21T03:57:16.789Z,904
2016-05-21T03:58:16.949Z,948
2016-05-21T03:59:16.982Z,996
2016-05-21T04:00:16.829Z,1052
2016-05-21T04:01:17.034Z,1108
2016-05-21T04:02:16.896Z,1164
2016-05-21T04:03:16.915Z,1216
2016-05-21T04:04:17.074Z,1260
2016-05-21T04:05:17.107Z,1304
2016-05-21T04:06:17.126Z,1344
2016-05-21T04:07:17.129Z,1384
2016-05-21T04:08:17.146Z,1428
2016-05-21T04:09:17.165Z,1468
2016-05-21T04:10:17.012Z,1520
2016-05-21T04:11:17.592Z,1564
2016-05-21T04:12:17.064Z,1600
2016-05-21T04:13:17.239Z,1644
2016-05-21T04:14:17.085Z,1684
2016-05-21T04:15:17.120Z,1732
2016-05-21T04:16:17.106Z,1776
2016-05-21T04:17:17.296Z,1808
2016-05-21T04:18:17.173Z,1836
2016-05-21T04:19:17.176Z,1864
2016-05-21T04:20:17.351Z,1904
2016-05-21T04:21:17.370Z,1956
2016-05-21T04:22:17.403Z,2012
2016-05-21T04:23:17.266Z,2052
2016-05-21T04:24:17.455Z,2064
2016-05-21T04:25:17.428Z,2076
2016-05-21T04:26:17.476Z,2116
2016-05-21T04:27:17.510Z,2156
2016-05-21T04:28:17.513Z,2212
2016-05-21T04:29:17.532Z,2264
2016-05-21T04:30:17.550Z,2316
2016-05-21T04:31:17.568Z,2380
2016-05-21T04:32:17.571Z,2452
2016-05-21T04:33:17.448Z,2524
2016-05-21T04:34:17.591Z,2572
2016-05-21T04:35:17.501Z,2580
2016-05-21T04:36:17.643Z,2596
2016-05-21T04:37:17.679Z,2664
2016-05-21T04:38:17.681Z,2668
2016-05-21T04:39:17.699Z,2720
2016-05-21T04:40:17.718Z,2776
2016-05-21T04:41:18.626Z,2840
2016-05-21T04:42:17.770Z,2908
2016-05-21T04:43:17.615Z,2988
2016-05-21T04:44:17.806Z,3040
2016-05-21T04:45:17.840Z,3056
2016-05-21T04:46:17.671Z,3068
2016-05-21T04:47:17.861Z,3136
2016-05-21T04:48:17.879Z,3320
2016-05-21T04:49:17.726Z,3376
2016-05-21T04:50:17.901Z,3428
2016-05-21T04:51:17.919Z,3444
2016-05-21T04:52:17.953Z,3428
2016-05-21T04:53:17.986Z,3364
2016-05-21T04:54:17.989Z,3340
2016-05-21T04:55:18.023Z,3408
2016-05-21T04:56:17.980Z,3468
2016-05-21T04:57:17.888Z,3504
2016-05-21T04:58:18.046Z,3508
2016-05-21T04:59:17.925Z,3588
2016-05-21T05:00:17.943Z,3584
2016-05-21T05:01:18.118Z,3800
2016-05-21T05:02:17.979Z,3832
2016-05-21T05:03:17.841Z,3784
2016-05-21T05:04:18.172Z,3684
2016-05-21T05:05:18.191Z,3724
2016-05-21T05:06:18.256Z,3876
2016-05-21T05:07:18.087Z,4200
2016-05-21T05:08:18.229Z,4344
2016-05-21T05:09:17.983Z,4528
2016-05-21T05:10:18.126Z,4376
2016-05-21T05:11:18.035Z,4028
2016-05-21T05:12:18.163Z,3888
2016-05-21T05:13:18.353Z,3784
2016-05-21T05:14:18.356Z,3704
2016-05-21T05:15:18.359Z,3620
2016-05-21T05:16:18.424Z,3564
2016-05-21T05:17:18.286Z,3528
2016-05-21T05:18:18.445Z,3496
2016-05-21T05:19:18.447Z,3480
2016-05-21T05:20:18.465Z,3472
2016-05-21T05:21:18.500Z,3484
2016-05-21T05:22:18.502Z,3504
2016-05-21T05:23:18.536Z,3508
2016-05-21T05:24:18.414Z,3500
2016-05-21T05:25:18.398Z,3484
2016-05-21T05:26:18.700Z,3484
2016-05-21T05:27:18.625Z,3496
2016-05-21T05:28:18.643Z,3528
2016-05-21T05:29:18.471Z,3580
2016-05-21T05:30:18.522Z,3648
2016-05-21T05:31:18.696Z,3744
2016-05-21T05:32:18.713Z,3908
2016-05-21T05:33:18.732Z,4000
2016-05-21T05:34:18.594Z,4252
2016-05-21T05:35:18.613Z,3640
2016-05-21T05:36:18.474Z,3504
2016-05-21T05:37:18.822Z,3472
2016-05-21T05:38:18.807Z,3500
2016-05-21T05:39:18.842Z,3540
2016-05-21T05:40:18.860Z,3640
2016-05-21T05:41:18.910Z,3976
2016-05-21T05:42:18.912Z,4204
2016-05-21T05:43:18.931Z,4764
2016-05-21T05:44:18.965Z,4768
2016-05-21T05:45:18.952Z,4104
2016-05-21T05:46:18.970Z,4104
2016-05-21T05:47:18.989Z,4160
2016-05-21T05:48:19.006Z,4200
2016-05-21T05:49:19.040Z,4240
2016-05-21T05:50:19.075Z,4200
2016-05-21T05:51:18.906Z,4176
2016-05-21T05:52:19.095Z,4144
2016-05-21T05:53:18.958Z,4120
2016-05-21T05:54:19.133Z,4116
2016-05-21T05:55:19.166Z,4120
2016-05-21T05:56:19.544Z,4168
2016-05-21T05:57:19.203Z,4200
2016-05-21T05:58:19.222Z,4244
2016-05-21T05:59:19.255Z,4352
2016-05-21T06:00:19.258Z,4472
2016-05-21T06:01:19.119Z,4676
2016-05-21T06:02:19.263Z,5184
2016-05-21T06:03:19.344Z,5628
2016-05-21T06:04:19.175Z,6860
2016-05-21T06:05:19.053Z,6648
2016-05-21T06:06:19.399Z,4976
2016-05-21T06:07:19.402Z,5052
2016-05-21T06:08:19.279Z,4960
2016-05-21T06:09:19.282Z,5312
2016-05-21T06:10:19.457Z,5356
2016-05-21T06:11:19.163Z,5616
2016-05-21T06:12:19.165Z,5364
2016-05-21T06:13:19.512Z,5288
2016-05-21T06:14:19.530Z,6696
2016-05-21T06:15:19.485Z,7212
2016-05-21T06:16:19.582Z,6660
2016-05-21T06:17:19.585Z,6092
2016-05-21T06:18:19.634Z,5328
2016-05-21T06:19:19.621Z,6516
2016-05-21T06:20:19.640Z,7004
2016-05-21T06:21:19.689Z,7088
2016-05-21T06:22:19.676Z,7044
2016-05-21T06:23:19.570Z,7184
2016-05-21T06:24:19.729Z,7292
2016-05-21T06:25:19.747Z,7300
2016-05-21T06:26:20.156Z,7072
2016-05-21T06:27:19.784Z,6352
2016-05-21T06:28:19.802Z,5552
2016-05-21T06:29:19.805Z,5116
2016-05-21T06:30:19.855Z,4960
2016-05-21T06:31:19.872Z,4880
2016-05-21T06:32:19.891Z,5100
2016-05-21T06:33:19.768Z,5900
2016-05-21T06:34:19.943Z,6364
2016-05-21T06:35:19.946Z,6544
2016-05-21T06:36:19.824Z,7192
2016-05-21T06:37:19.858Z,6852
2016-05-21T06:38:20.032Z,7348
2016-05-21T06:39:19.879Z,6968
2016-05-21T06:40:19.897Z,7212
2016-05-21T06:41:20.088Z,7428
2016-05-21T06:42:20.089Z,7516
2016-05-21T06:43:20.108Z,7616
2016-05-21T06:44:20.142Z,7684
2016-05-21T06:45:20.160Z,7780
2016-05-21T06:46:20.178Z,7884
2016-05-21T06:47:20.228Z,7952
2016-05-21T06:48:20.278Z,8108
2016-05-21T06:49:20.265Z,8032
2016-05-21T06:50:20.284Z,8032
2016-05-21T06:51:20.129Z,8092
2016-05-21T06:52:20.320Z,8180
2016-05-21T06:53:20.353Z,8188
2016-05-21T06:54:20.372Z,8496
2016-05-21T06:55:20.390Z,8768
2016-05-21T06:56:21.159Z,8940
2016-05-21T06:57:20.505Z,9124
2016-05-21T06:58:20.476Z,9124
2016-05-21T06:59:20.558Z,9408
2016-05-21T07:00:20.356Z,9328
2016-05-21T07:01:20.563Z,9428
2016-05-21T07:02:20.534Z,9296
2016-05-21T07:03:20.599Z,9316
2016-05-21T07:04:20.633Z,9440
2016-05-21T07:05:20.433Z,9664
2016-05-21T07:06:20.467Z,9776
2016-05-21T07:07:20.641Z,9704
2016-05-21T07:08:20.519Z,9712
2016-05-21T07:09:20.663Z,9620
2016-05-21T07:10:20.727Z,9252
2016-05-21T07:11:20.932Z,9280
2016-05-21T07:12:20.749Z,9232
2016-05-21T07:13:20.641Z,9220
2016-05-21T07:14:20.644Z,8964
2016-05-21T07:15:20.663Z,9140
2016-05-21T07:16:20.837Z,9024
2016-05-21T07:17:20.731Z,8308
2016-05-21T07:18:20.905Z,8896
2016-05-21T07:19:20.752Z,9276
2016-05-21T07:20:20.770Z,9400
2016-05-21T07:21:20.945Z,8980
2016-05-21T07:22:20.963Z,8824
2016-05-21T07:23:20.997Z,8808
2016-05-21T07:24:21.031Z,8500
2016-05-21T07:25:21.064Z,7900
2016-05-21T07:26:21.474Z,7872
2016-05-21T07:27:21.086Z,8508
2016-05-21T07:28:21.135Z,8596
2016-05-21T07:29:21.154Z,8900
2016-05-21T07:30:21.156Z,8912
2016-05-21T07:31:21.175Z,9088
2016-05-21T07:32:21.209Z,9164
2016-05-21T07:33:21.055Z,9228
2016-05-21T07:34:21.245Z,9312
2016-05-21T07:35:21.263Z,9344
2016-05-21T07:36:21.297Z,8900
2016-05-21T07:37:21.316Z,9036
2016-05-21T07:38:21.177Z,9428
2016-05-21T07:39:21.352Z,9500
2016-05-21T07:40:21.386Z,9404
2016-05-21T07:41:21.280Z,9348
2016-05-21T07:42:21.282Z,9108
2016-05-21T07:43:21.441Z,9096
2016-05-21T07:44:21.538Z,9224
2016-05-21T07:45:21.493Z,8876
2016-05-21T07:46:21.621Z,8728
2016-05-21T07:47:21.530Z,8732
2016-05-21T07:48:21.658Z,8492
2016-05-21T07:49:21.629Z,8448
2016-05-21T07:50:21.695Z,7892
2016-05-21T07:51:21.510Z,7668
2016-05-21T07:52:21.731Z,7192
2016-05-21T07:53:21.702Z,7544
2016-05-21T07:54:21.721Z,8100
2016-05-21T07:55:21.739Z,7480
2016-05-21T07:56:22.586Z,7280
2016-05-21T07:57:21.776Z,7556
2016-05-21T07:58:21.684Z,8104
2016-05-21T07:59:21.812Z,8496
2016-05-21T08:00:21.847Z,8408
2016-05-21T08:01:21.881Z,8164
2016-05-21T08:02:21.883Z,7820
2016-05-21T08:03:21.917Z,8076
2016-05-21T08:04:21.919Z,8300
2016-05-21T08:05:21.953Z,8208
2016-05-21T08:06:21.988Z,8076
2016-05-21T08:07:21.991Z,8432
2016-05-21T08:08:22.024Z,8380
2016-05-21T08:09:22.027Z,8696
2016-05-21T08:10:21.905Z,8960
2016-05-21T08:11:21.938Z,8784
2016-05-21T08:12:22.113Z,8724
2016-05-21T08:13:22.132Z,8892
2016-05-21T08:14:22.165Z,8724
2016-05-21T08:15:22.184Z,8900
2016-05-21T08:16:22.201Z,8796
2016-05-21T08:17:22.268Z,8676
2016-05-21T08:18:22.223Z,8588
2016-05-21T08:19:22.116Z,8576
2016-05-21T08:20:22.291Z,8420
2016-05-21T08:21:22.153Z,8140
2016-05-21T08:22:22.015Z,7876
2016-05-21T08:23:22.377Z,8052
2016-05-21T08:24:22.379Z,8012
2016-05-21T08:25:22.414Z,8116
2016-05-21T08:26:22.276Z,7804
2016-05-21T08:27:22.809Z,7864
2016-05-21T08:28:22.203Z,7872
2016-05-21T08:29:22.346Z,7716
2016-05-21T08:30:22.365Z,7636
2016-05-21T08:31:22.586Z,7968
2016-05-21T08:32:22.604Z,8096
2016-05-21T08:33:22.638Z,8288
2016-05-21T08:34:22.625Z,7576
2016-05-21T08:35:22.519Z,7380
2016-05-21T08:36:22.756Z,7976
2016-05-21T08:37:22.743Z,8324
2016-05-21T08:38:22.589Z,8512
2016-05-21T08:39:22.639Z,8612
2016-05-21T08:40:22.829Z,8856
2016-05-21T08:41:22.832Z,8928
2016-05-21T08:42:22.819Z,8988
2016-05-21T08:43:22.868Z,9208
2016-05-21T08:44:22.871Z,9196
2016-05-21T08:45:22.874Z,9468
2016-05-21T08:46:22.891Z,9732
2016-05-21T08:47:22.926Z,9956
2016-05-21T08:48:22.929Z,10128
2016-05-21T08:49:22.963Z,10300
2016-05-21T08:50:22.981Z,10484
2016-05-21T08:51:22.874Z,10544
2016-05-21T08:52:23.017Z,10716
2016-05-21T08:53:22.754Z,10828
2016-05-21T08:54:22.929Z,10920
2016-05-21T08:55:23.088Z,10948
2016-05-21T08:56:23.137Z,10208
2016-05-21T08:57:23.156Z,10032
2016-05-21T08:58:23.003Z,9352
2016-05-21T08:59:23.209Z,8728
2016-05-21T09:00:23.211Z,8988
2016-05-21T09:01:23.245Z,9160
2016-05-21T09:02:23.263Z,9132
2016-05-21T09:03:23.142Z,9412
2016-05-21T09:04:23.144Z,9112
2016-05-21T09:05:23.177Z,9260
2016-05-21T09:06:23.212Z,9428
2016-05-21T09:07:23.386Z,10204
2016-05-21T09:08:23.405Z,10100
2016-05-21T09:09:23.267Z,10520
2016-05-21T09:10:23.457Z,10416
2016-05-21T09:11:23.350Z,10524
2016-05-21T09:12:23.353Z,10948
2016-05-21T09:13:23.527Z,11212
2016-05-21T09:14:23.389Z,11528
2016-05-21T09:15:23.408Z,11548
2016-05-21T09:16:23.613Z,11532
2016-05-21T09:17:23.507Z,11608
2016-05-21T09:18:23.688Z,11484
2016-05-21T09:19:23.712Z,11508
2016-05-21T09:20:23.766Z,11524
2016-05-21T09:21:23.650Z,11744
2016-05-21T09:22:23.877Z,11924
2016-05-21T09:23:23.901Z,12072
2016-05-21T09:24:23.975Z,12196
2016-05-21T09:25:23.830Z,11952
2016-05-21T09:26:24.121Z,11560
2016-05-21T09:27:24.100Z,11332
2016-05-21T09:28:24.089Z,11216
2016-05-21T09:29:23.953Z,11080
2016-05-21T09:30:24.131Z,10816
2016-05-21T09:31:23.949Z,10524
2016-05-21T09:32:24.189Z,8964
2016-05-21T09:33:24.177Z,8420
2016-05-21T09:34:24.180Z,7884
2016-05-21T09:35:24.076Z,7360
2016-05-21T09:36:23.954Z,6860
2016-05-21T09:37:24.271Z,6396
2016-05-21T09:38:24.289Z,6024
2016-05-21T09:39:24.309Z,5848
2016-05-21T09:40:24.186Z,5844
2016-05-21T09:41:24.361Z,5992
2016-05-21T09:42:24.380Z,6252
2016-05-21T09:43:24.415Z,6720
2016-05-21T09:44:24.432Z,7372
2016-05-21T09:45:24.450Z,8032
2016-05-21T09:46:24.468Z,9144
2016-05-21T09:47:24.503Z,9564
2016-05-21T09:48:24.365Z,10072
2016-05-21T09:49:24.384Z,10268
2016-05-21T09:50:24.400Z,9924
2016-05-21T09:51:24.607Z,10032
2016-05-21T09:52:24.594Z,9808
2016-05-21T09:53:24.644Z,10300
2016-05-21T09:54:24.677Z,10352
2016-05-21T09:55:24.539Z,9640
2016-05-21T09:56:24.542Z,9844
2016-05-21T09:57:24.732Z,10540
2016-05-21T09:58:24.750Z,11536
2016-05-21T09:59:24.785Z,12104
2016-05-21T10:00:24.803Z,10392
2016-05-21T10:01:24.852Z,12248
2016-05-21T10:02:24.715Z,12016
2016-05-21T10:03:24.718Z,11832
2016-05-21T10:04:24.783Z,10492
2016-05-21T10:05:24.941Z,10744
2016-05-21T10:06:24.976Z,11364
2016-05-21T10:07:24.994Z,10904
2016-05-21T10:08:24.887Z,11036
2016-05-21T10:09:25.030Z,11040
2016-05-21T10:10:25.158Z,11344
2016-05-21T10:11:25.473Z,10612
2016-05-21T10:12:25.179Z,10312
2016-05-21T10:13:25.182Z,10564
2016-05-21T10:14:25.168Z,10364
2016-05-21T10:15:25.203Z,10404
2016-05-21T10:16:25.236Z,10556
2016-05-21T10:17:25.240Z,10416
2016-05-21T10:18:25.226Z,10576
2016-05-21T10:19:25.260Z,10592
2016-05-21T10:20:25.294Z,10872
2016-05-21T10:21:25.157Z,11188
2016-05-21T10:22:25.347Z,11268
2016-05-21T10:23:25.350Z,10616
2016-05-21T10:24:25.384Z,10284
2016-05-21T10:25:24.964Z,10108
2016-05-21T10:26:25.794Z,9944
2016-05-21T10:27:25.453Z,9804
2016-05-21T10:28:25.472Z,9744
2016-05-21T10:29:25.491Z,9516
2016-05-21T10:30:25.508Z,9348
2016-05-21T10:31:25.558Z,9448
2016-05-21T10:32:25.577Z,9720
2016-05-21T10:33:25.611Z,9772
2016-05-21T10:34:25.488Z,9820
2016-05-21T10:35:25.647Z,9976
2016-05-21T10:36:25.682Z,10236
2016-05-21T10:37:25.716Z,10584
2016-05-21T10:38:25.702Z,11096
2016-05-21T10:39:25.736Z,11760
2016-05-21T10:40:25.755Z,11996
2016-05-21T10:41:25.804Z,11284
2016-05-21T10:42:25.806Z,11136
2016-05-21T10:43:25.840Z,10984
2016-05-21T10:44:25.703Z,10864
2016-05-21T10:45:25.862Z,10892
2016-05-21T10:46:25.911Z,10996
2016-05-21T10:47:25.945Z,11060
2016-05-21T10:48:25.964Z,10992
2016-05-21T10:49:26.060Z,10476
2016-05-21T10:50:26.031Z,9908
2016-05-21T10:51:26.050Z,9540
2016-05-21T10:52:26.068Z,9324
2016-05-21T10:53:26.087Z,9240
2016-05-21T10:54:26.167Z,9336
2016-05-21T10:55:25.967Z,9124
2016-05-21T10:56:26.126Z,9088
2016-05-21T10:57:25.910Z,9116
2016-05-21T10:58:26.318Z,9196
2016-05-21T10:59:26.103Z,9400
2016-05-21T11:00:26.339Z,9624
2016-05-21T11:01:26.358Z,9772
2016-05-21T11:02:26.344Z,9828
2016-05-21T11:03:26.380Z,9856
2016-05-21T11:04:26.319Z,9776
2016-05-21T11:05:26.399Z,9764
2016-05-21T11:06:26.262Z,9824
2016-05-21T11:07:26.421Z,9900
2016-05-21T11:08:26.299Z,9912
2016-05-21T11:09:26.473Z,9924
2016-05-21T11:10:26.491Z,10020
2016-05-21T11:11:27.057Z,10056
2016-05-21T11:12:27.200Z,9976
2016-05-21T11:13:26.562Z,9832
2016-05-21T11:14:26.455Z,9756
2016-05-21T11:15:26.630Z,9660
2016-05-21T11:16:26.632Z,9548
2016-05-21T11:17:26.651Z,9544
2016-05-21T11:18:26.701Z,9728
2016-05-21T11:19:26.734Z,9980
2016-05-21T11:20:26.753Z,10208
2016-05-21T11:21:26.756Z,10284
2016-05-21T11:22:26.805Z,10136
2016-05-21T11:23:26.667Z,9884
2016-05-21T11:24:26.982Z,9652
2016-05-21T11:25:26.719Z,9460
2016-05-21T11:26:26.894Z,9296
2016-05-21T11:27:27.114Z,9196
2016-05-21T11:28:26.931Z,9112
2016-05-21T11:29:26.808Z,9136
2016-05-21T11:30:26.983Z,9156
2016-05-21T11:31:26.860Z,9108
2016-05-21T11:32:26.863Z,8752
2016-05-21T11:33:26.881Z,8244
2016-05-21T11:34:27.119Z,7852
2016-05-21T11:35:27.121Z,7676
2016-05-21T11:36:27.171Z,7616
2016-05-21T11:37:27.174Z,7744
2016-05-21T11:38:27.067Z,7976
2016-05-21T11:39:27.226Z,8076
2016-05-21T11:40:27.135Z,7880
2016-05-21T11:41:27.356Z,7704
2016-05-21T11:42:28.234Z,7532
2016-05-21T11:43:27.392Z,7500
2016-05-21T11:44:27.224Z,7556
2016-05-21T11:45:27.398Z,7608
2016-05-21T11:46:27.416Z,7552
2016-05-21T11:47:27.294Z,7464
2016-05-21T11:48:27.438Z,7516
2016-05-21T11:49:27.315Z,7528
2016-05-21T11:50:27.302Z,7552
2016-05-21T11:51:27.492Z,7644
2016-05-21T11:52:27.526Z,7652
2016-05-21T11:53:27.529Z,7496
2016-05-21T11:54:27.547Z,7288
2016-05-21T11:55:27.597Z,6992
2016-05-21T11:56:27.600Z,6620
2016-05-21T11:57:27.493Z,6308
2016-05-21T11:58:27.495Z,6084
2016-05-21T11:59:27.530Z,6020
2016-05-21T12:00:27.688Z,6028
2016-05-21T12:01:27.581Z,6156
2016-05-21T12:02:27.599Z,6416
2016-05-21T12:03:27.775Z,6792
2016-05-21T12:04:27.778Z,7168
2016-05-21T12:05:27.811Z,7568
2016-05-21T12:06:27.844Z,7988
2016-05-21T12:07:27.863Z,8356
2016-05-21T12:08:27.882Z,8892
2016-05-21T12:09:27.916Z,9560
2016-05-21T12:10:27.966Z,10124
2016-05-21T12:11:27.983Z,10412
2016-05-21T12:12:28.143Z,10868
2016-05-21T12:13:28.020Z,11732
2016-05-21T12:14:27.882Z,13860
2016-05-21T12:15:28.073Z,14156
2016-05-21T12:16:28.091Z,14760
2016-05-21T12:17:28.109Z,14564
2016-05-21T12:18:28.112Z,14364
2016-05-21T12:19:27.990Z,14048
2016-05-21T12:20:28.242Z,13472
2016-05-21T12:21:28.229Z,13096
2016-05-21T12:22:28.232Z,12836
2016-05-21T12:23:28.265Z,12956
2016-05-21T12:24:28.143Z,12552
2016-05-21T12:25:28.350Z,12356
2016-05-21T12:26:28.023Z,11720
2016-05-21T12:27:28.870Z,9564
2016-05-21T12:28:28.248Z,9284
2016-05-21T12:29:28.297Z,9000
2016-05-21T12:30:28.113Z,8816
2016-05-21T12:31:28.537Z,8688
2016-05-21T12:32:28.556Z,8556
2016-05-21T12:33:28.543Z,8552
2016-05-21T12:34:28.374Z,8556
2016-05-21T12:35:28.595Z,8640
2016-05-21T12:36:28.457Z,8900
2016-05-21T12:37:28.600Z,9164
2016-05-21T12:38:28.493Z,9404
2016-05-21T12:39:28.669Z,9700
2016-05-21T12:40:28.671Z,10716
2016-05-21T12:41:28.579Z,11700
2016-05-21T12:42:28.599Z,11020
2016-05-21T12:43:28.741Z,10640
2016-05-21T12:44:28.776Z,10544
2016-05-21T12:45:28.529Z,12500
2016-05-21T12:46:28.812Z,12396
2016-05-21T12:47:28.862Z,12836
2016-05-21T12:48:28.692Z,12892
2016-05-21T12:49:28.898Z,10744
2016-05-21T12:50:28.932Z,12176
2016-05-21T12:51:28.795Z,10732
2016-05-21T12:52:28.954Z,9428
2016-05-21T12:53:29.003Z,9556
2016-05-21T12:54:29.037Z,9524
2016-05-21T12:55:28.898Z,9196
2016-05-21T12:56:29.089Z,9480
2016-05-21T12:57:29.545Z,11836
2016-05-21T12:58:29.109Z,11880
2016-05-21T12:59:29.144Z,12276
2016-05-21T13:00:29.162Z,12504
2016-05-21T13:01:29.197Z,12152
2016-05-21T13:02:29.058Z,12136
2016-05-21T13:03:29.248Z,12284
2016-05-21T13:04:29.314Z,12288
2016-05-21T13:05:29.160Z,11868
2016-05-21T13:06:29.288Z,11664
2016-05-21T13:07:29.227Z,11428
2016-05-21T13:08:29.043Z,11432
2016-05-21T13:09:29.389Z,11456
2016-05-21T13:10:29.127Z,11476
2016-05-21T13:11:29.333Z,11316
2016-05-21T13:12:29.241Z,11356
2016-05-21T13:13:29.588Z,11232
2016-05-21T13:14:29.606Z,11348
2016-05-21T13:15:29.610Z,11480
2016-05-21T13:16:29.564Z,11692
2016-05-21T13:17:29.629Z,11688
2016-05-21T13:18:29.648Z,11580
2016-05-21T13:19:29.541Z,11480
2016-05-21T13:20:29.685Z,11172
2016-05-21T13:21:29.703Z,10772
2016-05-21T13:22:29.596Z,10044
2016-05-21T13:23:29.474Z,9608
2016-05-21T13:24:29.773Z,10968
2016-05-21T13:25:29.651Z,11688
2016-05-21T13:26:29.670Z,11880
2016-05-21T13:27:29.703Z,11788
2016-05-21T13:28:29.894Z,12192
2016-05-21T13:29:29.584Z,11792
2016-05-21T13:30:29.931Z,11908
2016-05-21T13:31:29.778Z,12080
2016-05-21T13:32:29.983Z,8980
2016-05-21T13:33:30.000Z,8564
2016-05-21T13:34:30.035Z,8268